Language: 


Des rapports , des résumés tant et plus, au choix de chacun....


Données statistiques de la station
Quotidien Rapport Aout 28, 2017 Unités:  Anglais    Métrique   les deux
« Précédent Jour
Suivant Jour »
Quotidien Hebdomadaire Mensuel Annuel Actuel
  Haut: Bas: Moyen:
Température: 90.7 °F 32 °F 71.2 °F
Pt de rosée: 68 °F 55.4 °F 61.5 °F
Humidité: 98 % 0 % 71 %
Vitesse du vent: 4.7 mph 0 mph 0.4 mph
Rafales: 7.2 mph - -
Vent:- - South
Pression: 30.1 in 30 in -
Précipitation: 0 in    
Historical Graphs
 
 
Données statistiques pour Aout 28, 2017
Heure Température Point de rosée Pression Vent Vitesse du vent Refales Humidité Pluie (taux horaire)
00:00 62.2 °F 59 °F 30.1 in NNE 2 mph 4.3 mph 89 % 0 in
00:05 62.2 °F 59 °F 30.1 in Calm   4.3 mph 89 % 0 in
00:10 61.9 °F 59 °F 30.1 in NNE 3.1 mph 3.1 mph 89 % 0 in
00:15 61.9 °F 59 °F 30.1 in Calm   3.1 mph 89 % 0 in
00:20 61.9 °F 59 °F 30.1 in NNE 1.6 mph 3.1 mph 89 % 0 in
00:25 61.9 °F 59 °F 30.1 in Calm   3.1 mph 89 % 0 in
00:30 61.9 °F 59 °F 30.1 in North 0.9 mph 4.3 mph 89 % 0 in
00:35 61.9 °F 59 °F 30.1 in NNE 1.3 mph 4.3 mph 89 % 0 in
00:40 61.7 °F 59 °F 30.1 in Calm   4.3 mph 90 % 0 in
00:45 61.7 °F 59 °F 30.1 in Calm   4.3 mph 90 % 0 in
00:50 61.7 °F 59 °F 30.1 in Calm   3.6 mph 90 % 0 in
00:55 61.2 °F 59 °F 30.1 in Calm   3.6 mph 90 % 0 in
01:00 61.2 °F 59 °F 30.1 in Calm     90 % 0 in
01:05 61.2 °F 59 °F 30.1 in Calm     90 % 0 in
01:10 61.2 °F 59 °F 30.1 in Calm     90 % 0 in
01:15 61.2 °F 59 °F 30.1 in NE 2.5 mph 2.5 mph 90 % 0 in
01:20 60.4 °F 57.2 °F 30.1 in Calm   3.6 mph 92 % 0 in
01:26 60.4 °F 57.2 °F 30.1 in NE 2.7 mph 3.6 mph 92 % 0 in
01:31 60.4 °F 57.2 °F 30.1 in Calm   3.4 mph 92 % 0 in
01:36 60.4 °F 57.2 °F 30.1 in North 2.7 mph 3.4 mph 92 % 0 in
01:41 60.4 °F 59 °F 30.1 in North 1.6 mph 2.9 mph 93 % 0 in
01:46 60.4 °F 59 °F 30.1 in Calm   2.9 mph 93 % 0 in
01:51 60.4 °F 59 °F 30.1 in North 2.5 mph 2.5 mph 93 % 0 in
01:56 60.4 °F 59 °F 30.1 in Calm   2.7 mph 93 % 0 in
02:01 60.4 °F 59 °F 30.1 in Calm   2.7 mph 93 % 0 in
02:06 60.4 °F 59 °F 30.1 in Calm     93 % 0 in
02:11 60.4 °F 59 °F 30.1 in Calm     93 % 0 in
02:16 60.4 °F 59 °F 30.1 in Calm     93 % 0 in
02:21 59.9 °F 59 °F 30.1 in Calm   1.3 mph 93 % 0 in
02:26 59.7 °F 57.2 °F 30.1 in Calm   1.3 mph 93 % 0 in
02:31 59.7 °F 57.2 °F 30.1 in Calm     93 % 0 in
02:36 59.7 °F 57.2 °F 30.1 in Calm     93 % 0 in
02:41 59.7 °F 57.2 °F 30.1 in Calm     93 % 0 in
02:46 59.7 °F 57.2 °F 30.1 in Calm   1.6 mph 93 % 0 in
02:51 59.7 °F 57.2 °F 30.1 in Calm   2.2 mph 93 % 0 in
02:56 59.7 °F 57.2 °F 30.1 in Calm   2.2 mph 93 % 0 in
03:01 32 °F 57.2 °F 30.1 in Calm     0 % 0 in
03:07 32 °F 57.2 °F 30.1 in Calm     0 % 0 in
03:12 32 °F 57.2 °F 30.1 in Calm   2 mph 0 % 0 in
03:17 32 °F 57.2 °F 30.1 in Calm   2 mph 0 % 0 in
03:22 32 °F 57.2 °F 30.1 in Calm   0.9 mph 0 % 0 in
03:27 32 °F 57.2 °F 30.1 in Calm     0 % 0 in
03:32 32 °F 57.2 °F 30.1 in Calm     0 % 0 in
03:37 32 °F 57.2 °F 30.1 in Calm     0 % 0 in
03:42 57.4 °F 55.4 °F 30.1 in Calm     94 % 0 in
03:47 57.6 °F 55.4 °F 30.1 in Calm     94 % 0 in
03:52 57.6 °F 55.4 °F 30.1 in Calm     94 % 0 in
03:57 57.6 °F 55.4 °F 30.1 in Calm     94 % 0 in
04:02 57.6 °F 55.4 °F 30.1 in Calm     94 % 0 in
04:07 57.6 °F 55.4 °F 30.1 in Calm     94 % 0 in
04:09 57.6 °F 55.4 °F 30.1 in Calm     94 % 0 in
04:14 57.6 °F 55.4 °F 30.1 in Calm   2.7 mph 94 % 0 in
04:19 57.6 °F 55.4 °F 30.1 in Calm   3.4 mph 94 % 0 in
04:25 58.1 °F 57.2 °F 30.1 in Calm   3.4 mph 96 % 0 in
04:30 58.1 °F 57.2 °F 30.1 in Calm   2.9 mph 96 % 0 in
04:35 58.1 °F 57.2 °F 30.1 in NNE 0.9 mph 2.5 mph 96 % 0 in
04:40 58.1 °F 57.2 °F 30.1 in Calm   3.6 mph 96 % 0 in
04:45 58.1 °F 57.2 °F 30.1 in Calm   3.6 mph 96 % 0 in
04:50 58.1 °F 57.2 °F 30.1 in Calm   3.1 mph 96 % 0 in
04:55 58.1 °F 57.2 °F 30.1 in Calm   3.6 mph 96 % 0 in
05:00 58.1 °F 57.2 °F 30.1 in NE 3.4 mph 3.8 mph 96 % 0 in
05:05 58.1 °F 57.2 °F 30.1 in NNE 2.9 mph 3.8 mph 96 % 0 in
05:10 58.1 °F 57.2 °F 30.1 in Calm   3.8 mph 96 % 0 in
05:15 58.1 °F 57.2 °F 30.1 in Calm   3.8 mph 96 % 0 in
05:20 58.1 °F 57.2 °F 30.1 in Calm   3.4 mph 96 % 0 in
05:25 58.1 °F 57.2 °F 30.1 in Calm   2.5 mph 96 % 0 in
05:30 58.1 °F 57.2 °F 30.1 in Calm   2.7 mph 96 % 0 in
05:32 58.1 °F 57.2 °F 30.1 in Calm   2.7 mph 96 % 0 in
05:37 58.1 °F 57.2 °F 30.1 in Calm   2.7 mph 96 % 0 in
05:42 58.1 °F 57.2 °F 30.1 in Calm   2.7 mph 96 % 0 in
05:47 58.1 °F 57.2 °F 30.1 in North 1.6 mph 3.1 mph 96 % 0 in
05:52 58.1 °F 57.2 °F 30.1 in NE 3.1 mph 3.1 mph 96 % 0 in
05:57 58.1 °F 57.2 °F 30.1 in Calm   3.4 mph 96 % 0 in
06:02 57.9 °F 57.2 °F 30.1 in Calm   3.4 mph 97 % 0 in
06:07 57.9 °F 57.2 °F 30.1 in NE 1.6 mph 2.7 mph 96 % 0 in
06:12 57.9 °F 57.2 °F 30.1 in Calm   2.2 mph 96 % 0 in
06:17 57.9 °F 57.2 °F 30.1 in Calm   2.2 mph 96 % 0 in
06:22 57.9 °F 57.2 °F 30.1 in Calm   2.5 mph 96 % 0 in
06:28 57.9 °F 57.2 °F 30.1 in Calm   2.5 mph 96 % 0 in
06:33 57.7 °F 57.2 °F 30.1 in Calm   3.1 mph 97 % 0 in
06:38 57.7 °F 57.2 °F 30.1 in Calm   4 mph 97 % 0 in
06:43 57.7 °F 57.2 °F 30.1 in Calm   4 mph 97 % 0 in
06:48 57.7 °F 57.2 °F 30.1 in Calm   3.6 mph 97 % 0 in
06:53 57.7 °F 57.2 °F 30.1 in Calm   2.5 mph 97 % 0 in
06:58 57.7 °F 57.2 °F 30.1 in Calm   2.5 mph 97 % 0 in
07:03 57.6 °F 57.2 °F 30.1 in Calm     97 % 0 in
07:08 57.6 °F 57.2 °F 30.1 in Calm     97 % 0 in
07:13 57.6 °F 57.2 °F 30.1 in Calm     97 % 0 in
07:18 57.6 °F 57.2 °F 30.1 in Calm   2.2 mph 97 % 0 in
07:23 57.7 °F 57.2 °F 30.1 in Calm   2.2 mph 97 % 0 in
07:28 57.7 °F 57.2 °F 30.1 in Calm     97 % 0 in
07:33 57.7 °F 57.2 °F 30.1 in Calm   0.9 mph 97 % 0 in
07:38 58.1 °F 59 °F 30.1 in Calm   0.9 mph 98 % 0 in
07:43 58.1 °F 59 °F 30.1 in Calm   1.6 mph 98 % 0 in
07:48 58.6 °F 59 °F 30.1 in Calm   1.6 mph 98 % 0 in
07:53 58.6 °F 59 °F 30.1 in Calm     98 % 0 in
07:58 58.6 °F 59 °F 30.1 in Calm     98 % 0 in
08:03 58.6 °F 59 °F 30.1 in Calm     98 % 0 in
08:08 58.6 °F 59 °F 30.1 in Calm     98 % 0 in
08:13 58.6 °F 59 °F 30.1 in Calm     98 % 0 in
08:14 58.6 °F 59 °F 30.1 in Calm     98 % 0 in
08:19 58.6 °F 59 °F 30.1 in Calm     98 % 0 in
08:24 62.1 °F 60.8 °F 30.1 in Calm     97 % 0 in
08:29 62.1 °F 60.8 °F 30.1 in Calm   1.3 mph 97 % 0 in
08:34 62.4 °F 62.6 °F 30.1 in NNE 1.1 mph 1.3 mph 96 % 0 in
08:39 62.8 °F 62.6 °F 30.1 in Calm   1.1 mph 96 % 0 in
08:44 63.1 °F 62.6 °F 30.1 in Calm   2.7 mph 96 % 0 in
08:49 63.5 °F 62.6 °F 30.1 in Calm   3.6 mph 95 % 0 in
08:54 63.7 °F 62.6 °F 30.1 in Calm   3.6 mph 95 % 0 in
08:59 63.9 °F 62.6 °F 30.1 in Calm   1.1 mph 95 % 0 in
09:04 63.9 °F 62.6 °F 30.1 in Calm     95 % 0 in
09:09 64.8 °F 62.6 °F 30.1 in Calm     94 % 0 in
09:14 66 °F 64.4 °F 30.1 in Calm     94 % 0 in
09:19 66.2 °F 64.4 °F 30.1 in Calm     93 % 0 in
09:22 66.2 °F 64.4 °F 30.1 in Calm     93 % 0 in
09:27 66.9 °F 64.4 °F 30.1 in Calm     93 % 0 in
09:32 67.5 °F 64.4 °F 30.1 in Calm     92 % 0 in
09:37 67.6 °F 64.4 °F 30.1 in Calm     91 % 0 in
09:42 68 °F 66.2 °F 30.1 in Calm     91 % 0 in
09:47 68.2 °F 64.4 °F 30.1 in Calm     90 % 0 in
09:52 68.9 °F 66.2 °F 30.1 in Calm     89 % 0 in
09:57 69.3 °F 66.2 °F 30.1 in Calm     89 % 0 in
10:03 70 °F 66.2 °F 30.1 in Calm     87 % 0 in
10:08 70.2 °F 66.2 °F 30.1 in North 0.9 mph 2 mph 87 % 0 in
10:13 70.2 °F 66.2 °F 30.1 in Calm   2 mph 87 % 0 in
10:18 72 °F 68 °F 30.1 in SSE 0.9 mph 0.9 mph 85 % 0 in
10:23 72.7 °F 68 °F 30.1 in Calm   3.1 mph 84 % 0 in
10:28 73.2 °F 68 °F 30.1 in Calm   3.1 mph 81 % 0 in
10:33 73.6 °F 68 °F 30.1 in Calm     80 % 0 in
10:38 73.6 °F 68 °F 30.1 in Calm   1.3 mph 80 % 0 in
10:43 73.6 °F 68 °F 30.1 in Calm   1.3 mph 80 % 0 in
10:48 75.2 °F 68 °F 30.1 in Calm   1.1 mph 78 % 0 in
10:53 75.7 °F 68 °F 30.1 in Calm     76 % 0 in
10:58 76.5 °F 68 °F 30.1 in Calm     73 % 0 in
11:03 76.5 °F 68 °F 30.1 in Calm     73 % 0 in
11:08 77.4 °F 68 °F 30.1 in NNE 2.2 mph 2.2 mph 70 % 0 in
11:13 77.5 °F 68 °F 30.1 in Calm   2.2 mph 70 % 0 in
11:18 78.6 °F 68 °F 30.1 in North 2 mph 2.7 mph 70 % 0 in
11:23 79.3 °F 68 °F 30.1 in Calm   2.7 mph 67 % 0 in
11:28 79.5 °F 68 °F 30.1 in Calm   2.2 mph 67 % 0 in
11:33 79.5 °F 68 °F 30.1 in Calm   2.2 mph 66 % 0 in
11:39 79.5 °F 68 °F 30.1 in Calm   1.1 mph 65 % 0 in
11:44 80.1 °F 68 °F 30.1 in Calm   1.6 mph 65 % 0 in
11:49 80.1 °F 68 °F 30.1 in Calm   2 mph 64 % 0 in
11:54 80.6 °F 68 °F 30.1 in Calm   2 mph 63 % 0 in
11:59 80.8 °F 66.2 °F 30.1 in Calm   1.1 mph 62 % 0 in
12:04 80.8 °F 66.2 °F 30.1 in Calm     62 % 0 in
12:09 81.1 °F 66.2 °F 30.1 in Calm   3.1 mph 61 % 0 in
12:14 81.7 °F 68 °F 30.1 in Calm   3.1 mph 60 % 0 in
12:19 81.9 °F 68 °F 30.1 in Calm   3.1 mph 60 % 0 in
12:24 81.7 °F 68 °F 30.1 in Calm     60 % 0 in
12:29 81.7 °F 68 °F 30.1 in Calm     60 % 0 in
12:34 82.9 °F 68 °F 30.1 in Calm     60 % 0 in
12:39 82.9 °F 68 °F 30.1 in Calm     60 % 0 in
12:44 82.9 °F 68 °F 30.1 in Calm     60 % 0 in
12:49 83.8 °F 68 °F 30.1 in Calm     57 % 0 in
12:54 84 °F 68 °F 30.1 in Calm   2.5 mph 56 % 0 in
12:59 84.2 °F 66.2 °F 30.1 in Calm   2.5 mph 55 % 0 in
13:05 84.2 °F 66.2 °F 30.1 in Calm     55 % 0 in
13:10 84.2 °F 66.2 °F 30.1 in NW 1.1 mph 3.6 mph 55 % 0 in
13:15 84.2 °F 66.2 °F 30.1 in Calm   3.6 mph 55 % 0 in
13:20 84.7 °F 66.2 °F 30.1 in Calm   2.5 mph 53 % 0 in
13:25 84.4 °F 66.2 °F 30.1 in Calm   2.5 mph 53 % 0 in
13:30 85.3 °F 66.2 °F 30.1 in Calm     53 % 0 in
13:35 85.8 °F 66.2 °F 30.1 in Calm     51 % 0 in
13:40 85.8 °F 66.2 °F 30.1 in Calm     51 % 0 in
13:45 85.8 °F 66.2 °F 30 in Calm     51 % 0 in
13:50 85.8 °F 66.2 °F 30 in Calm   2.7 mph 51 % 0 in
13:55 86.5 °F 66.2 °F 30 in Calm   3.1 mph 51 % 0 in
14:00 86.5 °F 66.2 °F 30 in Calm   3.1 mph 51 % 0 in
14:05 86.9 °F 66.2 °F 30 in Calm   4 mph 49 % 0 in
14:10 86.9 °F 66.2 °F 30 in Calm   5.4 mph 48 % 0 in
14:15 86.9 °F 64.4 °F 30 in Calm   5.4 mph 46 % 0 in
14:20 87.6 °F 66.2 °F 30 in WNW 2.9 mph 2.9 mph 48 % 0 in
14:25 87.6 °F 66.2 °F 30 in Calm   2.9 mph 48 % 0 in
14:30 87.6 °F 66.2 °F 30 in Calm   2.9 mph 48 % 0 in
14:35 87.6 °F 64.4 °F 30 in Calm   2.9 mph 45 % 0 in
14:40 87.6 °F 64.4 °F 30 in Calm   2.2 mph 45 % 0 in
14:45 88.2 °F 64.4 °F 30 in Calm   2.2 mph 45 % 0 in
14:51 88.2 °F 64.4 °F 30 in WSW 1.3 mph 4.5 mph 45 % 0 in
14:56 88 °F 64.4 °F 30 in Calm   5.4 mph 44 % 0 in
15:01 88.5 °F 64.4 °F 30 in Calm   5.4 mph 45 % 0 in
15:06 88.5 °F 64.4 °F 30 in Calm   3.6 mph 45 % 0 in
15:11 88.7 °F 64.4 °F 30 in East 2.9 mph 3.6 mph 43 % 0 in
15:16 88.7 °F 64.4 °F 30 in NE 0.9 mph 2.9 mph 43 % 0 in
15:21 88.3 °F 62.6 °F 30 in Calm   2.5 mph 43 % 0 in
15:26 89.1 °F 64.4 °F 30 in East 3.4 mph 3.4 mph 44 % 0 in
15:31 89.4 °F 64.4 °F 30 in South 2.5 mph 3.4 mph 43 % 0 in
15:36 89.8 °F 64.4 °F 30 in Calm   3.1 mph 42 % 0 in
15:41 90 °F 64.4 °F 30 in Calm   4 mph 42 % 0 in
15:46 90.5 °F 64.4 °F 30 in Calm   4 mph 41 % 0 in
15:51 90.7 °F 64.4 °F 30 in Calm   2.5 mph 40 % 0 in
15:56 90 °F 62.6 °F 30 in Calm   2.7 mph 40 % 0 in
16:01 89.4 °F 62.6 °F 30 in Calm   2.7 mph 40 % 0 in
16:06 89.2 °F 60.8 °F 30 in Calm   5.4 mph 39 % 0 in
16:08 89.2 °F 62.6 °F 30 in Calm   5.4 mph 40 % 0 in
16:13 89.1 °F 62.6 °F 30 in WSW 2 mph 5.4 mph 41 % 0 in
16:15 89.1 °F 62.6 °F 30 in Calm   5.4 mph 40 % 0 in
16:21 89.2 °F 62.6 °F 30 in North 2.5 mph 4.3 mph 41 % 0 in
16:26 89.2 °F 62.6 °F 30 in Calm   4.3 mph 41 % 0 in
16:31 89.1 °F 62.6 °F 30 in Calm   2.5 mph 40 % 0 in
16:36 89.2 °F 62.6 °F 30 in NNW 3.1 mph 3.1 mph 40 % 0 in
16:41 89.6 °F 62.6 °F 30 in Calm   3.1 mph 40 % 0 in
16:46 90.1 °F 62.6 °F 30 in Calm   3.6 mph 40 % 0 in
16:51 90.3 °F 62.6 °F 30 in SW 3.4 mph 3.6 mph 40 % 0 in
16:56 90.1 °F 62.6 °F 30 in West 2.9 mph 3.6 mph 39 % 0 in
17:01 90.1 °F 62.6 °F 30 in SW 2.9 mph 5.8 mph 39 % 0 in
17:06 90.3 °F 62.6 °F 30 in WNW 1.6 mph 5.8 mph 39 % 0 in
17:11 89.8 °F 60.8 °F 30 in West 3.8 mph 5.8 mph 38 % 0 in
17:16 89.1 °F 60.8 °F 30 in West 4.7 mph 7.2 mph 39 % 0 in
17:21 88.9 °F 60.8 °F 30 in Calm   7.2 mph 38 % 0 in
17:26 89.4 °F 62.6 °F 30 in Calm   4.7 mph 39 % 0 in
17:31 89.8 °F 60.8 °F 30 in Calm     38 % 0 in
17:36 90 °F 60.8 °F 30 in Calm     38 % 0 in
17:41 90.3 °F 60.8 °F 30 in SW 2.5 mph 2.5 mph 38 % 0 in
17:46 90 °F 60.8 °F 30 in Calm   2.5 mph 38 % 0 in
17:51 89.6 °F 62.6 °F 30 in Calm   4 mph 39 % 0 in
17:56 89.4 °F 62.6 °F 30 in Calm   4.3 mph 40 % 0 in
18:01 89.2 °F 60.8 °F 30 in Calm   4.3 mph 39 % 0 in
18:06 89.6 °F 62.6 °F 30 in Calm     39 % 0 in
18:11 89.4 °F 62.6 °F 30 in Calm   3.8 mph 41 % 0 in
18:16 88.7 °F 60.8 °F 30 in WSW 2.5 mph 4 mph 39 % 0 in
18:21 89.1 °F 62.6 °F 30 in Calm   4 mph 40 % 0 in
18:27 89.1 °F 62.6 °F 30 in Calm     40 % 0 in
18:32 88.7 °F 60.8 °F 30 in Calm     39 % 0 in
18:37 88.3 °F 60.8 °F 30 in Calm     40 % 0 in
18:42 88 °F 60.8 °F 30 in Calm     40 % 0 in
18:47 87.8 °F 60.8 °F 30 in Calm     40 % 0 in
18:52 87.4 °F 60.8 °F 30 in Calm     41 % 0 in
18:57 86.5 °F 60.8 °F 30 in Calm     41 % 0 in
19:02 85.6 °F 59 °F 30 in Calm     42 % 0 in
19:07 84.9 °F 59 °F 30 in Calm     42 % 0 in
19:12 84.4 °F 60.8 °F 30 in Calm     44 % 0 in
19:17 83.8 °F 60.8 °F 30 in Calm     44 % 0 in
19:22 83.8 °F 60.8 °F 30 in Calm     45 % 0 in
19:27 83.7 °F 60.8 °F 30 in Calm   1.6 mph 45 % 0 in
19:32 83.3 °F 62.6 °F 30 in Calm   1.6 mph 47 % 0 in
19:37 82.9 °F 60.8 °F 30 in Calm     47 % 0 in
19:42 82.6 °F 60.8 °F 30 in Calm     47 % 0 in
19:47 82 °F 60.8 °F 30 in Calm     49 % 0 in
19:52 81.5 °F 62.6 °F 30 in Calm     50 % 0 in
19:57 80.6 °F 62.6 °F 30 in Calm     52 % 0 in
20:02 79.7 °F 62.6 °F 30 in Calm     54 % 0 in
20:07 79 °F 60.8 °F 30 in Calm     55 % 0 in
20:13 78.4 °F 60.8 °F 30 in Calm     56 % 0 in
20:18 77.9 °F 62.6 °F 30 in Calm     57 % 0 in
20:23 77.4 °F 62.6 °F 30 in Calm     59 % 0 in
20:28 76.5 °F 62.6 °F 30 in Calm     61 % 0 in
20:33 75.9 °F 62.6 °F 30 in Calm     62 % 0 in
20:43 74.3 °F 62.6 °F 30 in Calm     65 % 0 in
20:48 73.8 °F 62.6 °F 30 in Calm     66 % 0 in
20:53 73.2 °F 62.6 °F 30 in Calm     67 % 0 in
20:58 72.7 °F 62.6 °F 30 in Calm     68 % 0 in
21:03 72 °F 60.8 °F 30 in Calm     69 % 0 in
21:08 71.4 °F 60.8 °F 30 in Calm     70 % 0 in
21:13 70.7 °F 60.8 °F 30 in Calm     70 % 0 in
21:18 70.2 °F 60.8 °F 30 in Calm     71 % 0 in
21:23 70.3 °F 60.8 °F 30 in NNE 2.9 mph 3.8 mph 73 % 0 in
21:28 70.7 °F 62.6 °F 30 in NNE 2.9 mph 3.8 mph 73 % 0 in
21:33 70.7 °F 62.6 °F 30 in ENE 2.7 mph 2.9 mph 74 % 0 in
21:38 70.7 °F 62.6 °F 30 in NNE 2.7 mph 2.9 mph 75 % 0 in
21:44 70.5 °F 62.6 °F 30 in Calm   2.9 mph 75 % 0 in
21:49 70.3 °F 62.6 °F 30 in Calm   2.7 mph 76 % 0 in
21:54 70.2 °F 62.6 °F 30 in Calm     76 % 0 in
21:59 70 °F 62.6 °F 30 in Calm     76 % 0 in
22:04 69.8 °F 62.6 °F 30 in Calm   2.9 mph 77 % 0 in
22:09 69.8 °F 62.6 °F 30 in North 3.1 mph 3.6 mph 77 % 0 in
22:19 69.4 °F 62.6 °F 30 in Calm   3.4 mph 78 % 0 in
22:24 69.3 °F 62.6 °F 30 in Calm   3.4 mph 78 % 0 in
22:29 69.3 °F 62.6 °F 30 in Calm     79 % 0 in
22:34 69.1 °F 62.6 °F 30 in Calm     79 % 0 in
22:39 68.9 °F 62.6 °F 30 in Calm     79 % 0 in
22:44 68.7 °F 62.6 °F 30 in Calm     79 % 0 in
22:49 68.5 °F 62.6 °F 30 in Calm     79 % 0 in
22:54 68.4 °F 62.6 °F 30 in Calm     80 % 0 in
22:59 68.2 °F 62.6 °F 30 in Calm     80 % 0 in
23:04 67.8 °F 62.6 °F 30 in Calm     80 % 0 in
23:09 67.5 °F 60.8 °F 30 in Calm     80 % 0 in
23:14 67.1 °F 60.8 °F 30 in Calm     81 % 0 in
23:19 66.7 °F 60.8 °F 30 in Calm     81 % 0 in
23:24 66.6 °F 60.8 °F 30 in Calm   1.6 mph 82 % 0 in
23:29 66.6 °F 60.8 °F 30 in Calm   1.6 mph 82 % 0 in
23:34 66.4 °F 60.8 °F 30 in Calm   3.4 mph 83 % 0 in
23:39 66.4 °F 60.8 °F 30 in Calm   3.8 mph 83 % 0 in
23:44 66.4 °F 60.8 °F 30 in North 2.5 mph 3.8 mph 84 % 0 in
23:49 66.4 °F 60.8 °F 30 in Calm   4.3 mph 84 % 0 in
23:54 66.4 °F 60.8 °F 30 in Calm   4.3 mph 84 % 0 in
23:59 66.2 °F 62.6 °F 30 in Calm   2.9 mph 85 % 0 in
Le Gheer Warneton
Courtoisie de Weather Underground - 2.25 mb

Mise a jour : 18/12/2017 17:33:13
Généré par Cumulus 1.9.4 (1099)